KMMH Airport Information

Runway Information
Runway 09 Length 7000 ft width 100 ft
Elevation 7128 ft Threshold 0 ft Heading 109
Runway 27 Length 7000 ft Width 100 ft
Elevation 7056 ft Threshold 0 ft Heading 289
Airport Frequencies
Type AWOS Name AWOS 3 Frequency 118.05 MHZ
Type CNTR Name OAKLAND CN Frequency 125.75 MHZ
Type RDO Name RIVERSIDE Frequency 122.15 MHZ
Type UNIC Name CTAF/UNICO Frequency 122.8 MHZ
Airport Navaids
Airport Weather Information & NOTAM
ADDS - METARS form results

(1419 UTC 01 December 2020)
Data provider http://aviationweather.gov/metar/data/
 
METAR text: KMMH 011357Z AUTO 36003KT 10SM CLR M08/M15 A3035 RMK AO2
Conditions at: KMMH (MAMMOTH/JUNE LAK, CA, US) observed 1357 UTC 01 December 2020
Temperature: -8.0°C (18°F)
Dewpoint: -15.0°C ( 5°F) [RH = 57%]
Pressure (altimeter): 30.35 inches Hg (1027.9 mb)
Winds: from the N (360 degrees) at 3 MPH (3 knots; 1.5 m/s)
Visibility: 10 or more miles (16+ km)
Ceiling: at least 12,000 feet AGL
Clouds: sky clear below 12,000 feet AGL
Weather: automated observation with no human augmentation;
there may or may not be significant weather present at this time

METAR text: KMMH 011337Z AUTO 00000KT 10SM CLR M07/M14 A3034 RMK AO2
Conditions at: KMMH (MAMMOTH/JUNE LAK, CA, US) observed 1337 UTC 01 December 2020
Temperature: -7.0°C (19°F)
Dewpoint: -14.0°C ( 7°F) [RH = 57%]
Pressure (altimeter): 30.34 inches Hg (1027.5 mb)
Winds: calm
Visibility: 10 or more miles (16+ km)
Ceiling: at least 12,000 feet AGL
Clouds: sky clear below 12,000 feet AGL
Weather: automated observation with no human augmentation;
there may or may not be significant weather present at this time

Forecast for: KMMH (MAMMOTH/JUNE LAK, CA, US)
Text: KMMH 011136Z 0112/0212 29004KT P6SM SKC
Forecast period: 1200 to 1800 UTC 01 December 2020
Forecast type: FROM: standard forecast or significant change
Winds: from the WNW (290 degrees) at 5 MPH (4 knots; 2.1 m/s)
Visibility: 6 or more miles (10+ km)
Clouds: clear skies
Weather: no significant weather forecast for this period
Text: FM011800 30006KT P6SM SCT250
Forecast period: 1800 UTC 01 December 2020 to 0000 UTC 02 December 2020
Forecast type: FROM: standard forecast or significant change
Winds: from the WNW (300 degrees) at 7 MPH (6 knots; 3.1 m/s)
Visibility: 6 or more miles (10+ km)
Ceiling: at least 12,000 feet AGL
Clouds: scattered clouds at 25000 feet AGL
Weather: no significant weather forecast for this period
Text: FM020000 23006KT P6SM SCT250
Forecast period: 0000 to 1200 UTC 02 December 2020
Forecast type: FROM: standard forecast or significant change
Winds: from the SW (230 degrees) at 7 MPH (6 knots; 3.1 m/s)
Visibility: 6 or more miles (10+ km)
Ceiling: at least 12,000 feet AGL
Clouds: scattered clouds at 25000 feet AGL
Weather: no significant weather forecast for this period